53W weather

Woodruff Lake Airport
Winn, Michigan, United States

Public forecast

Using degrees Fahrenheit for public forecast. Weather courtesy of forecast.io.

METAR (pilot weather report)

Closest report is Mount Pleasant Municipal Airport, 11.2 nm (20.8 km) ENE. Retrieved 2019/09/17 19:35 UTC (4 minutes ago):

KMOP 171935Z AUTO 13003KT 10SM BKN017 20/16 A3022 RMK AO2 T02040157

TAF (pilot weather forecast)

Closest forecast is MBS International Airport, 39.2 nm (72.5 km) E. Retrieved 2019/09/17 18:36 UTC (1 hour ago):

TAF KMBS 171732Z 1718/1818 VRB05KT P6SM BKN025 FM171900 08006KT P6SM SCT250 FM172200 07005KT P6SM SKC FM180700 VRB02KT P6SM SCT090 BKN200 FM181400 16006KT P6SM SCT250